createdAt,value
2018-09-14T00:02:18.119Z,20.20
2018-09-14T00:04:46.652Z,20.24
2018-09-14T00:07:15.191Z,20.30
2018-09-14T00:09:43.836Z,20.39
2018-09-14T00:12:12.376Z,20.32
2018-09-14T00:14:40.928Z,20.32
2018-09-14T00:17:09.590Z,20.37
2018-09-14T00:19:38.171Z,20.37
2018-09-14T00:22:06.995Z,20.32
2018-09-14T00:24:35.520Z,20.32
2018-09-14T00:27:04.162Z,20.30
2018-09-14T00:29:32.704Z,20.26
2018-09-14T00:32:01.243Z,20.24
2018-09-14T00:34:29.848Z,20.25
2018-09-14T00:36:58.383Z,20.21
2018-09-14T00:39:26.916Z,20.15
2018-09-14T00:41:55.493Z,20.12
2018-09-14T00:44:24.110Z,20.12
2018-09-14T00:46:52.633Z,20.09
2018-09-14T00:49:21.168Z,20.07
2018-09-14T00:51:49.721Z,20.06
2018-09-14T00:54:18.271Z,20.05
2018-09-14T00:56:46.836Z,19.96
2018-09-14T00:59:15.462Z,19.83
2018-09-14T01:01:44.681Z,19.75
2018-09-14T01:04:13.220Z,19.69
2018-09-14T01:06:41.938Z,19.63
2018-09-14T01:09:18.401Z,19.69
2018-09-14T01:11:47.367Z,19.79
2018-09-14T01:14:15.907Z,19.87
2018-09-14T01:16:44.802Z,19.92
2018-09-14T01:19:13.440Z,19.89
2018-09-14T01:21:42.056Z,19.90
2018-09-14T01:24:10.597Z,19.90
2018-09-14T01:26:39.154Z,19.78
2018-09-14T01:29:07.674Z,19.76
2018-09-14T01:31:36.216Z,19.79
2018-09-14T01:34:04.790Z,19.84
2018-09-14T01:36:33.327Z,19.90
2018-09-14T01:39:02.714Z,19.92
2018-09-14T01:41:31.270Z,19.92
2018-09-14T01:43:59.861Z,19.95
2018-09-14T01:46:28.444Z,19.95
2018-09-14T01:48:57.000Z,19.94
2018-09-14T01:51:25.627Z,19.88
2018-09-14T01:53:54.193Z,19.75
2018-09-14T01:56:22.779Z,19.62
2018-09-14T01:58:51.330Z,19.51
2018-09-14T02:01:20.204Z,19.54
2018-09-14T02:03:48.815Z,19.56
2018-09-14T02:06:17.371Z,19.62
2018-09-14T02:08:46.119Z,19.62
2018-09-14T02:11:15.561Z,19.59
2018-09-14T02:13:44.326Z,19.53
2018-09-14T02:16:12.876Z,19.59
2018-09-14T02:18:41.412Z,19.55
2018-09-14T02:21:10.028Z,19.55
2018-09-14T02:23:38.559Z,19.56
2018-09-14T02:26:07.264Z,19.59
2018-09-14T02:28:35.946Z,19.59
2018-09-14T02:31:04.543Z,19.59
2018-09-14T02:33:33.088Z,19.61
2018-09-14T02:36:01.629Z,19.59
2018-09-14T02:38:30.143Z,19.57
2018-09-14T02:40:58.732Z,19.52
2018-09-14T02:43:27.415Z,19.50
2018-09-14T02:45:55.936Z,19.47
2018-09-14T02:48:24.560Z,19.45
2018-09-14T02:50:53.113Z,19.40
2018-09-14T02:53:21.729Z,19.35
2018-09-14T02:55:50.338Z,19.36
2018-09-14T02:58:19.063Z,19.40
2018-09-14T03:00:47.611Z,19.40
2018-09-14T03:03:16.148Z,19.28
2018-09-14T03:05:44.784Z,19.29
2018-09-14T03:08:13.309Z,19.31
2018-09-14T03:10:41.839Z,19.29
2018-09-14T03:13:10.647Z,19.26
2018-09-14T03:15:39.411Z,19.22
2018-09-14T03:18:08.001Z,19.17
2018-09-14T03:20:36.523Z,19.17
2018-09-14T03:23:05.066Z,19.20
2018-09-14T03:25:33.604Z,19.22
2018-09-14T03:28:02.155Z,19.30
2018-09-14T03:30:30.707Z,19.34
2018-09-14T03:32:59.238Z,19.37
2018-09-14T03:35:27.887Z,19.36
2018-09-14T03:37:56.432Z,19.30
2018-09-14T03:40:24.972Z,19.11
2018-09-14T03:42:53.514Z,19.04
2018-09-14T03:45:22.125Z,19.09
2018-09-14T03:47:52.899Z,19.12
2018-09-14T03:50:22.909Z,19.16
2018-09-14T03:52:51.547Z,19.21
2018-09-14T03:55:20.095Z,19.19
2018-09-14T03:57:48.649Z,19.12
2018-09-14T04:00:17.254Z,19.15
2018-09-14T04:02:46.632Z,19.15
2018-09-14T04:05:15.186Z,19.16
2018-09-14T04:07:44.354Z,19.14
2018-09-14T04:10:13.065Z,19.16
2018-09-14T04:12:41.604Z,19.07
2018-09-14T04:15:11.009Z,18.96
2018-09-14T04:17:39.562Z,18.96
2018-09-14T04:20:08.899Z,18.92
2018-09-14T04:22:38.270Z,18.90
2018-09-14T04:25:06.817Z,18.92
2018-09-14T04:27:35.458Z,18.93
2018-09-14T04:30:04.437Z,18.99
2018-09-14T04:32:32.984Z,19.02
2018-09-14T04:35:01.999Z,19.03
2018-09-14T04:37:30.525Z,19.02
2018-09-14T04:39:59.045Z,19.00
2018-09-14T04:42:27.608Z,18.97
2018-09-14T04:44:56.161Z,18.99
2018-09-14T04:47:24.705Z,19.03
2018-09-14T04:49:53.296Z,19.07
2018-09-14T04:52:21.848Z,19.08
2018-09-14T04:54:50.405Z,19.07
2018-09-14T04:57:18.967Z,19.07
2018-09-14T04:59:47.537Z,19.08
2018-09-14T05:02:16.729Z,19.11
2018-09-14T05:04:45.281Z,19.15
2018-09-14T05:07:13.858Z,19.18
2018-09-14T05:09:42.452Z,19.20
2018-09-14T05:12:11.060Z,19.12
2018-09-14T05:14:39.629Z,19.08
2018-09-14T05:17:08.199Z,19.03
2018-09-14T05:19:36.797Z,19.00
2018-09-14T05:22:05.349Z,19.01
2018-09-14T05:24:34.048Z,19.01
2018-09-14T05:27:02.564Z,19.05
2018-09-14T05:29:31.096Z,19.09
2018-09-14T05:31:59.649Z,19.06
2018-09-14T05:34:28.188Z,19.07
2018-09-14T05:36:56.741Z,19.07
2018-09-14T05:39:25.289Z,19.07
2018-09-14T05:41:53.977Z,19.06
2018-09-14T05:44:22.517Z,19.08
2018-09-14T05:46:51.160Z,19.11
2018-09-14T05:49:19.739Z,19.13
2018-09-14T05:51:48.284Z,19.17
2018-09-14T05:54:16.839Z,19.16
2018-09-14T05:56:45.407Z,19.21
2018-09-14T05:59:13.986Z,19.21
2018-09-14T06:01:43.652Z,19.24
2018-09-14T06:04:12.190Z,19.18
2018-09-14T06:06:40.722Z,19.19
2018-09-14T06:09:11.016Z,19.21
2018-09-14T06:11:39.628Z,19.22
2018-09-14T06:14:08.244Z,19.25
2018-09-14T06:16:36.908Z,19.25
2018-09-14T06:19:05.587Z,19.24
2018-09-14T06:21:34.257Z,19.30
2018-09-14T06:24:02.906Z,19.33
2018-09-14T06:26:31.659Z,19.33
2018-09-14T06:29:00.238Z,19.26
2018-09-14T06:31:28.775Z,19.29
2018-09-14T06:33:57.351Z,19.32
2018-09-14T06:36:25.904Z,19.37
2018-09-14T06:38:54.510Z,19.41
2018-09-14T06:41:23.085Z,19.48
2018-09-14T06:43:51.656Z,19.52
2018-09-14T06:46:20.339Z,19.55
2018-09-14T06:48:48.888Z,19.55
2018-09-14T06:51:17.449Z,19.58
2018-09-14T06:53:45.991Z,19.37
2018-09-14T06:56:14.741Z,19.66
2018-09-14T06:58:43.290Z,19.69
2018-09-14T07:01:11.832Z,19.74
2018-09-14T07:03:40.479Z,19.78
2018-09-14T07:06:09.080Z,19.86
2018-09-14T07:08:37.622Z,19.91
2018-09-14T07:11:06.166Z,19.95
2018-09-14T07:13:34.778Z,20.04
2018-09-14T07:16:03.379Z,20.14
2018-09-14T07:18:31.923Z,20.22
2018-09-14T07:21:00.488Z,20.26
2018-09-14T07:23:29.129Z,20.39
2018-09-14T07:25:57.689Z,20.50
2018-09-14T07:28:26.260Z,20.59
2018-09-14T07:30:54.816Z,20.60
2018-09-14T07:33:23.357Z,20.57
2018-09-14T07:35:51.907Z,20.48
2018-09-14T07:38:20.448Z,20.47
2018-09-14T07:40:48.979Z,20.52
2018-09-14T07:43:17.546Z,20.52
2018-09-14T07:45:46.107Z,20.57
2018-09-14T07:48:14.693Z,20.61
2018-09-14T07:50:43.267Z,20.69
2018-09-14T07:53:11.827Z,20.72
2018-09-14T07:55:40.396Z,20.74
2018-09-14T07:58:09.012Z,20.79
2018-09-14T08:00:37.667Z,20.83
2018-09-14T08:03:07.107Z,20.88
2018-09-14T08:05:35.727Z,20.88
2018-09-14T08:08:04.304Z,20.94
2018-09-14T08:10:32.837Z,21.00
2018-09-14T08:13:01.380Z,21.06
2018-09-14T08:15:29.957Z,21.14
2018-09-14T08:17:58.520Z,21.16
2018-09-14T08:20:27.100Z,21.11
2018-09-14T08:22:55.639Z,20.95
2018-09-14T08:25:24.189Z,20.96
2018-09-14T08:27:52.758Z,20.97
2018-09-14T08:30:21.312Z,20.92
2018-09-14T08:32:49.871Z,20.96
2018-09-14T08:35:18.508Z,21.00
2018-09-14T08:37:47.093Z,21.01
2018-09-14T08:40:15.635Z,20.94
2018-09-14T08:42:44.173Z,20.81
2018-09-14T08:45:12.867Z,20.75
2018-09-14T08:47:41.418Z,20.66
2018-09-14T08:50:09.969Z,20.53
2018-09-14T08:52:38.524Z,20.44
2018-09-14T08:55:07.200Z,20.28
2018-09-14T08:57:35.824Z,20.30
2018-09-14T09:00:04.412Z,20.28
2018-09-14T09:02:32.971Z,20.34
2018-09-14T09:05:01.573Z,20.32
2018-09-14T09:07:30.138Z,20.37
2018-09-14T09:09:58.679Z,20.43
2018-09-14T09:12:27.232Z,20.42
2018-09-14T09:14:55.996Z,20.43
2018-09-14T09:17:24.584Z,20.47
2018-09-14T09:19:53.187Z,20.53
2018-09-14T09:22:21.736Z,20.48
2018-09-14T09:24:50.274Z,20.56
2018-09-14T09:27:18.839Z,20.59
2018-09-14T09:29:47.489Z,20.64
2018-09-14T09:32:16.051Z,20.68
2018-09-14T09:34:44.600Z,20.73
2018-09-14T09:37:13.182Z,20.65
2018-09-14T09:39:41.810Z,20.68
2018-09-14T09:42:10.385Z,20.63
2018-09-14T09:44:38.932Z,20.64
2018-09-14T09:47:07.515Z,20.65
2018-09-14T09:49:36.060Z,20.59
2018-09-14T09:52:04.635Z,20.59
2018-09-14T09:54:33.393Z,20.55
2018-09-14T09:57:02.101Z,20.51
2018-09-14T09:59:30.704Z,20.53
2018-09-14T10:02:04.481Z,20.56
2018-09-14T10:04:34.276Z,20.61
2018-09-14T10:07:02.884Z,20.68
2018-09-14T10:09:31.433Z,20.65
2018-09-14T10:12:00.021Z,20.55
2018-09-14T10:14:28.604Z,20.47
2018-09-14T10:16:57.469Z,20.49
2018-09-14T10:19:26.747Z,20.50
2018-09-14T10:21:55.701Z,20.52
2018-09-14T10:24:24.305Z,20.63
2018-09-14T10:26:52.859Z,20.70
2018-09-14T10:29:21.416Z,20.78
2018-09-14T10:31:49.998Z,20.74
2018-09-14T10:34:18.553Z,20.73
2018-09-14T10:36:47.561Z,20.72
2018-09-14T10:39:16.160Z,20.53
2018-09-14T10:41:44.784Z,20.58
2018-09-14T10:44:13.324Z,20.58
2018-09-14T10:46:41.912Z,20.60
2018-09-14T10:49:19.590Z,20.64
2018-09-14T10:51:59.923Z,20.58
2018-09-14T10:54:28.519Z,20.68
2018-09-14T10:56:57.132Z,20.71
2018-09-14T10:59:25.666Z,20.78
2018-09-14T11:01:54.246Z,20.82
2018-09-14T11:04:22.879Z,20.82
2018-09-14T11:06:51.567Z,20.79
2018-09-14T11:09:20.116Z,20.76
2018-09-14T11:11:48.655Z,20.70
2018-09-14T11:14:17.237Z,20.48
2018-09-14T11:16:45.793Z,20.26
2018-09-14T11:19:14.445Z,19.99
2018-09-14T11:21:43.031Z,19.65
2018-09-14T11:24:11.568Z,19.58
2018-09-14T11:26:40.117Z,19.16
2018-09-14T11:29:08.690Z,19.38
2018-09-14T11:31:37.338Z,19.51
2018-09-14T11:34:05.933Z,19.46
2018-09-14T11:36:34.501Z,19.49
2018-09-14T11:39:03.164Z,19.60
2018-09-14T11:41:31.792Z,19.67
2018-09-14T11:44:00.349Z,19.63
2018-09-14T11:46:28.917Z,19.58
2018-09-14T11:48:57.475Z,19.64
2018-09-14T11:51:26.050Z,19.52
2018-09-14T11:53:54.681Z,19.62
2018-09-14T11:56:23.304Z,19.74
2018-09-14T11:58:51.859Z,19.88
2018-09-14T12:01:20.509Z,19.96
2018-09-14T12:03:49.762Z,20.05
2018-09-14T12:06:18.318Z,20.06
2018-09-14T12:08:46.980Z,20.09
2018-09-14T12:11:15.546Z,20.13
2018-09-14T12:13:44.230Z,20.15
2018-09-14T12:16:12.765Z,20.19
2018-09-14T12:18:42.189Z,20.25
2018-09-14T12:21:10.799Z,20.35
2018-09-14T12:23:39.372Z,20.29
2018-09-14T12:26:07.920Z,20.29
2018-09-14T12:28:36.476Z,20.35
2018-09-14T12:31:05.020Z,20.29
2018-09-14T12:33:33.685Z,20.20
2018-09-14T12:36:02.249Z,20.27
2018-09-14T12:38:30.796Z,20.36
2018-09-14T12:40:59.358Z,20.46
2018-09-14T12:43:27.911Z,20.64
2018-09-14T12:45:56.461Z,20.76
2018-09-14T12:48:25.028Z,20.85
2018-09-14T12:50:53.568Z,20.93
2018-09-14T12:53:22.113Z,20.95
2018-09-14T12:55:50.728Z,20.98
2018-09-14T12:58:19.287Z,21.05
2018-09-14T13:00:47.853Z,21.22
2018-09-14T13:03:16.405Z,21.36
2018-09-14T13:05:45.074Z,21.52
2018-09-14T13:08:13.625Z,21.62
2018-09-14T13:10:42.188Z,21.70
2018-09-14T13:13:10.781Z,21.79
2018-09-14T13:15:39.356Z,21.83
2018-09-14T13:18:07.924Z,21.89
2018-09-14T13:20:36.506Z,21.88
2018-09-14T13:23:05.188Z,21.83
2018-09-14T13:25:33.738Z,21.79
2018-09-14T13:28:02.359Z,21.72
2018-09-14T13:30:31.047Z,21.57
2018-09-14T13:32:59.612Z,21.39
2018-09-14T13:35:28.155Z,21.34
2018-09-14T13:37:56.754Z,21.32
2018-09-14T13:40:25.398Z,21.30
2018-09-14T13:42:53.972Z,21.19
2018-09-14T13:45:22.642Z,21.06
2018-09-14T13:47:51.284Z,21.01
2018-09-14T13:50:21.295Z,20.95
2018-09-14T13:52:52.039Z,20.80
2018-09-14T13:55:21.979Z,20.59
2018-09-14T13:57:50.554Z,20.44
2018-09-14T14:00:19.133Z,20.29
2018-09-14T14:02:49.314Z,20.26
2018-09-14T14:05:17.869Z,20.20
2018-09-14T14:07:46.621Z,20.13
2018-09-14T14:10:17.451Z,20.13
2018-09-14T14:12:45.963Z,20.08
2018-09-14T14:15:14.509Z,19.97
2018-09-14T14:17:43.108Z,19.97
2018-09-14T14:20:13.442Z,20.02
2018-09-14T14:22:42.212Z,20.07
2018-09-14T14:25:10.762Z,20.04
2018-09-14T14:27:39.451Z,20.05
2018-09-14T14:30:08.142Z,19.95
2018-09-14T14:32:36.705Z,19.94
2018-09-14T14:35:05.778Z,19.95
2018-09-14T14:37:34.390Z,19.95
2018-09-14T14:40:02.983Z,19.96
2018-09-14T14:42:32.531Z,19.96
2018-09-14T14:45:01.140Z,20.02
2018-09-14T14:47:31.463Z,20.09
2018-09-14T14:50:00.024Z,20.11
2018-09-14T14:52:28.589Z,20.10
2018-09-14T15:00:38.219Z,20.11
2018-09-14T15:03:09.060Z,20.06
2018-09-14T15:05:37.680Z,20.08
2018-09-14T15:08:06.274Z,20.09
2018-09-14T15:10:34.832Z,20.07
2018-09-14T15:13:03.577Z,20.13
2018-09-14T15:15:32.260Z,20.12
2018-09-14T15:18:00.897Z,20.16
2018-09-14T15:20:29.507Z,20.12
2018-09-14T15:22:58.097Z,20.06
2018-09-14T15:25:26.640Z,19.91
2018-09-14T15:27:55.264Z,19.93
2018-09-14T15:30:23.988Z,20.01
2018-09-14T15:32:52.839Z,20.05
2018-09-14T15:35:21.455Z,20.10
2018-09-14T15:37:50.267Z,20.04
2018-09-14T15:40:19.000Z,19.86
2018-09-14T15:42:47.538Z,19.89
2018-09-14T15:45:16.150Z,19.93
2018-09-14T15:47:44.781Z,19.98
2018-09-14T15:50:13.362Z,20.00
2018-09-14T15:52:41.957Z,20.02
2018-09-14T15:55:10.908Z,19.97
2018-09-14T15:57:40.406Z,19.88
2018-09-14T16:00:09.024Z,19.79
2018-09-14T16:02:38.123Z,19.66
2018-09-14T16:05:06.700Z,19.45
2018-09-14T16:07:35.280Z,19.45
2018-09-14T16:10:04.013Z,19.41
2018-09-14T16:12:32.852Z,19.46
2018-09-14T16:15:01.435Z,19.51
2018-09-14T16:17:31.238Z,19.55
2018-09-14T16:19:59.909Z,19.58
2018-09-14T16:22:28.466Z,19.65
2018-09-14T16:24:57.457Z,19.67
2018-09-14T16:27:26.087Z,19.67
2018-09-14T16:29:54.696Z,19.56
2018-09-14T16:32:23.250Z,19.58
2018-09-14T16:34:51.904Z,19.62
2018-09-14T16:37:20.518Z,19.62
2018-09-14T16:39:49.038Z,19.62
2018-09-14T16:42:17.585Z,19.63
2018-09-14T16:44:46.159Z,19.62
2018-09-14T16:47:14.769Z,19.34
2018-09-14T16:49:43.364Z,19.48
2018-09-14T16:52:11.962Z,19.50
2018-09-14T16:54:40.605Z,19.55
2018-09-14T16:57:09.146Z,19.52
2018-09-14T16:59:37.789Z,19.53
2018-09-14T17:02:06.958Z,19.49
2018-09-14T17:04:38.355Z,19.41
2018-09-14T17:07:08.833Z,19.39
2018-09-14T17:09:38.162Z,19.40
2018-09-14T17:12:06.811Z,19.34
2018-09-14T17:14:35.444Z,19.25
2018-09-14T17:17:04.073Z,19.25
2018-09-14T17:19:32.684Z,19.19
2018-09-14T17:22:01.263Z,19.21
2018-09-14T17:24:29.824Z,19.20
2018-09-14T17:27:01.452Z,19.18
2018-09-14T17:29:29.991Z,19.13
2018-09-14T17:31:58.568Z,19.09
2018-09-14T17:34:35.248Z,19.06
2018-09-14T17:37:04.286Z,18.93
2018-09-14T17:39:32.866Z,18.87
2018-09-14T17:42:01.572Z,18.82
2018-09-14T17:44:30.217Z,18.79
2018-09-14T17:47:08.904Z,18.78
2018-09-14T17:49:37.476Z,18.70
2018-09-14T17:52:06.044Z,18.62
2018-09-14T17:54:34.657Z,18.56
2018-09-14T17:57:03.247Z,18.57
2018-09-14T17:59:31.869Z,18.58
2018-09-14T18:02:00.475Z,18.47
2018-09-14T18:04:29.030Z,18.40
2018-09-14T18:06:57.636Z,18.44
2018-09-14T18:09:26.261Z,18.42
2018-09-14T18:12:04.425Z,18.34
2018-09-14T18:14:32.990Z,18.31
2018-09-14T18:17:01.528Z,18.37
2018-09-14T18:19:30.114Z,18.33
2018-09-14T18:21:58.699Z,18.34
2018-09-14T18:24:27.260Z,18.37
2018-09-14T18:26:55.964Z,18.40
2018-09-14T18:29:24.687Z,18.39
2018-09-14T18:31:53.273Z,18.40
2018-09-14T18:34:21.836Z,18.37
2018-09-14T18:36:50.450Z,18.34
2018-09-14T18:39:19.029Z,18.29
2018-09-14T18:41:47.745Z,18.23
2018-09-14T18:44:25.272Z,18.20
2018-09-14T18:46:54.205Z,18.15
2018-09-14T18:49:23.078Z,18.08
2018-09-14T18:51:51.948Z,18.05
2018-09-14T18:54:20.786Z,18.05
2018-09-14T18:56:49.428Z,18.08
2018-09-14T18:59:33.917Z,18.03
2018-09-14T19:02:02.497Z,17.88
2018-09-14T19:04:31.064Z,17.82
2018-09-14T19:06:59.743Z,17.81
2018-09-14T19:09:28.315Z,17.85
2018-09-14T19:11:56.928Z,17.78
2018-09-14T19:14:25.691Z,17.67
2018-09-14T19:16:54.253Z,17.67
2018-09-14T19:19:23.164Z,17.69
2018-09-14T19:21:51.677Z,17.68
2018-09-14T19:24:20.376Z,17.69
2018-09-14T19:26:48.927Z,17.72
2018-09-14T19:29:17.532Z,17.72
2018-09-14T19:31:46.186Z,17.68
2018-09-14T19:34:14.747Z,17.64
2018-09-14T19:36:43.374Z,17.64
2018-09-14T19:39:13.082Z,17.56
2018-09-14T19:41:41.708Z,17.40
2018-09-14T19:44:22.583Z,17.28
2018-09-14T19:46:51.139Z,17.24
2018-09-14T19:49:19.829Z,17.25
2018-09-14T19:51:48.379Z,17.15
2018-09-14T19:54:17.093Z,17.09
2018-09-14T19:56:45.756Z,17.12
2018-09-14T19:59:14.352Z,17.16
2018-09-14T20:01:43.535Z,17.13
2018-09-14T20:04:12.089Z,17.10
2018-09-14T20:06:40.820Z,17.12
2018-09-14T20:09:11.669Z,17.16
2018-09-14T20:11:40.289Z,17.13
2018-09-14T20:14:20.292Z,17.11
2018-09-14T20:16:48.872Z,17.09
2018-09-14T20:19:17.427Z,17.03
2018-09-14T20:21:46.005Z,16.96
2018-09-14T20:24:14.574Z,16.92
2018-09-14T20:26:43.181Z,16.92
2018-09-14T20:29:12.575Z,16.81
2018-09-14T20:31:41.256Z,16.70
2018-09-14T20:34:09.888Z,16.54
2018-09-14T20:36:38.446Z,16.54
2018-09-14T20:39:08.974Z,16.51
2018-09-14T20:41:37.679Z,16.47
2018-09-14T20:44:08.333Z,16.44
2018-09-14T20:46:37.106Z,16.44
2018-09-14T20:49:05.809Z,16.46
2018-09-14T20:51:34.409Z,16.50
2018-09-14T20:54:02.977Z,16.52
2018-09-14T20:56:31.551Z,16.46
2018-09-14T20:59:00.989Z,16.45
2018-09-14T21:01:29.716Z,16.34
2018-09-14T21:03:58.281Z,16.20
2018-09-14T21:06:26.864Z,16.21
2018-09-14T21:08:55.464Z,16.24
2018-09-14T21:11:24.022Z,16.24
2018-09-14T21:13:52.581Z,16.17
2018-09-14T21:16:27.957Z,16.17
2018-09-14T21:18:56.541Z,16.11
2018-09-14T21:21:25.096Z,16.07
2018-09-14T21:23:53.714Z,16.04
2018-09-14T21:26:22.238Z,15.99
2018-09-14T21:28:50.791Z,16.07
2018-09-14T21:31:19.353Z,16.09
2018-09-14T21:33:47.904Z,16.10
2018-09-14T21:36:16.462Z,15.95
2018-09-14T21:38:45.008Z,15.87
2018-09-14T21:41:13.546Z,15.85
2018-09-14T21:43:42.121Z,15.79
2018-09-14T21:46:10.668Z,15.78
2018-09-14T21:48:39.321Z,15.76
2018-09-14T21:51:07.890Z,15.71
2018-09-14T21:53:36.552Z,15.68
2018-09-14T21:56:05.067Z,15.62
2018-09-14T21:58:33.616Z,15.60
2018-09-14T22:01:06.346Z,15.58
2018-09-14T22:03:34.922Z,15.51
2018-09-14T22:06:03.479Z,15.50
2018-09-14T22:08:32.028Z,15.57
2018-09-14T22:11:00.620Z,15.62
2018-09-14T22:13:29.217Z,15.63
2018-09-14T22:15:57.775Z,15.55
2018-09-14T22:18:26.417Z,15.54
2018-09-14T22:20:55.008Z,15.53
2018-09-14T22:23:23.657Z,15.54
2018-09-14T22:25:52.409Z,15.58
2018-09-14T22:31:11.392Z,15.63
2018-09-14T22:33:40.058Z,15.56
2018-09-14T22:36:08.656Z,15.53
2018-09-14T22:38:37.500Z,15.44
2018-09-14T22:41:06.065Z,15.39
2018-09-14T22:43:34.631Z,15.39
2018-09-14T22:46:03.165Z,15.43
2018-09-14T22:48:31.772Z,15.39
2018-09-14T22:51:00.401Z,15.36
2018-09-14T22:53:29.064Z,15.38
2018-09-14T22:55:57.648Z,15.35
2018-09-14T22:58:26.227Z,15.30
2018-09-14T23:01:00.021Z,15.30
2018-09-14T23:03:28.529Z,15.29
2018-09-14T23:05:57.064Z,15.29
2018-09-14T23:08:25.582Z,15.26
2018-09-14T23:10:54.331Z,15.22
2018-09-14T23:13:22.964Z,15.22
2018-09-14T23:15:59.326Z,15.21
2018-09-14T23:18:28.379Z,15.27
2018-09-14T23:20:56.935Z,15.21
2018-09-14T23:23:25.570Z,15.20
2018-09-14T23:25:56.178Z,15.23
2018-09-14T23:28:24.729Z,15.28
2018-09-14T23:30:53.268Z,15.35
2018-09-14T23:33:22.058Z,15.37
2018-09-14T23:35:50.604Z,15.33
2018-09-14T23:38:19.207Z,15.32
2018-09-14T23:40:47.833Z,15.31
2018-09-14T23:43:16.400Z,15.30
2018-09-14T23:45:44.948Z,15.34
2018-09-14T23:48:13.565Z,15.32
2018-09-14T23:50:42.112Z,15.36
2018-09-14T23:53:10.805Z,15.41
2018-09-14T23:55:39.360Z,15.44
2018-09-14T23:58:07.964Z,15.46
